Nearby METAR Reports

Sorted by Distance from Carson Valley Weather Station - Minden, Nevada

 

KMEV - Minden, Nevada, USA
Distance from station: SSW 3mi, 5km
Updated: Tue, 28-Jan-2020 2:35pm PST
Mostly cloudy
Mostly cloudy
 Wind from W
Wind: W 16 mph , 26 km/h, Gust: 25 mph , 41 km/h
Temperature: 52°F , 11°C
Dew Point: 21°F , -6°C
Humidity: 30%
Barometer: 30.18 inHg , 1022 hPa
Clouds: Mostly cloudy
Visibility: 10 miles , 16 km
Cloud details: Few Clouds 5500 ft
Mostly cloudy 7000 ft
Mostly cloudy 8000 ft
2020/01/28 22:35 KMEV 282235Z AUTO 28014G22KT 10SM FEW055 BKN070 BKN080 11/M06 A3018 RMK AO2
KCXP - Carson City, Nevada, USA
Distance from station: N 10mi, 16km
Updated: Tue, 28-Jan-2020 2:35pm PST
Overcast
Overcast
 Wind from W
Wind: W 9 mph , 15 km/h, Gust: 18 mph , 30 km/h
Temperature: 48°F , 9°C
Wind Chill: 44°F , 7°C
Dew Point: 25°F , -4°C
Humidity: 40%
Barometer: 30.19 inHg , 1022.4 hPa
Clouds: Overcast
Visibility: 10 miles , 16 km
Cloud details: Mostly cloudy 5000 ft
Overcast 6000 ft
2020/01/28 22:35 KCXP 282235Z AUTO 27008G16KT 200V320 10SM BKN050 OVC060 09/M04 A3019 RMK AO2
 
KTVL - South Lake Tahoe, California, USA
Distance from station: WSW 18mi, 29km
Updated: Tue, 28-Jan-2020 1:53pm PST
Mostly cloudy
Mostly cloudy
 Wind from SE
Wind: SE 13 mph , 20 km/h, Gust: 18 mph , 30 km/h
Temperature: 39°F , 4°C
Wind Chill: 31°F , -1°C
Dew Point: 30°F , -1°C
Humidity: 70%
Barometer: 30.23 inHg , 1023.7 hPa
Clouds: Mostly cloudy
Visibility: 10 miles , 16 km
Cloud details: Partly cloudy 2700 ft
Mostly cloudy 3400 ft
Mostly cloudy 4400 ft
2020/01/28 21:53 KTVL 282153Z AUTO 13011G16KT 10SM SCT027 BKN034 BKN044 04/M01 A3023 RMK AO2 RAB32E43 SLP227 P0000 T00441011
KTRK - Truckee Tahoe, California, USA
Distance from station: NW 29mi, 46km
Updated: Tue, 28-Jan-2020 1:50pm PST
Partly cloudy
Partly cloudy
 Wind from W
Wind: W 15 mph , 24 km/h, Gust: 20 mph , 31 km/h
Temperature: 43°F , 6°C
Wind Chill: 36°F , 2°C
Dew Point: 30°F , -1°C
Humidity: 61%
Barometer: 30.22 inHg , 1023.4 hPa
Clouds: Partly cloudy
Visibility: 10 miles , 16 km
Cloud details: Partly cloudy 2600 ft
Partly cloudy 3200 ft
2020/01/28 21:50 KTRK 282150Z 26013G17KT 10SM SCT026 SCT032 06/M01 A3022
 
KRNO - Reno, Nevada, USA
Distance from station: N 32mi, 51km
Updated: Tue, 28-Jan-2020 1:55pm PST
Few Clouds
Few Clouds
 Wind from W
Wind: W 13 mph , 20 km/h, Gust: 22 mph , 35 km/h
Temperature: 54°F , 12°C
Dew Point: 21°F , -6°C
Humidity: 28%
Barometer: 30.16 inHg , 1021.3 hPa
Clouds: Few Clouds
Visibility: 10 miles , 16 km
Cloud details: Few Clouds 6500 ft
Few Clouds 20000 ft
2020/01/28 21:55 KRNO 282155Z 27011G19KT 10SM FEW065 FEW200 12/M06 A3016 RMK AO2 PK WND 28029/2117 WSHFT 2111 SLP201 T01221056
KRTS - Reno/Stead, Nevada, USA
Distance from station: NNW 44mi, 71km
Updated: Tue, 28-Jan-2020 2:35pm PST
Clear
Clear
 Wind from W
Wind: W 21 mph , 33 km/h, Gust: 28 mph , 44 km/h
Temperature: 48°F , 9°C
Wind Chill: 41°F , 5°C
Dew Point: 21°F , -6°C
Humidity: 34%
Barometer: 30.17 inHg , 1021.7 hPa
Clouds: Clear
Visibility: 10 miles , 16 km
2020/01/28 22:35 KRTS 282235Z AUTO 28018G24KT 10SM CLR 09/M06 A3017 RMK AO2
 
KBAN - Bridgeport(Mcmwt, California, USA
Distance from station: SSE 49mi, 79km
Updated: Tue, 28-Jan-2020 1:52pm PST
Clear
Clear
 Wind from WSW
Wind: WSW 17 mph , 28 km/h, Gust: 32 mph , 52 km/h
Temperature: 45°F , 7°C
Wind Chill: 38°F , 3°C
Dew Point: 18°F , -8°C
Humidity: 34%
Barometer: 30.18 inHg , 1022 hPa
Clouds: Clear
Visibility: 10 miles , 16 km
2020/01/28 21:52 KBAN 282152Z AUTO 24015G28KT 10SM CLR 07/M08 A3018 RMK AO2 PK WND 25028/2147 SLP204 T00671078
KBLU - Emigrant Gap, California, USA
Distance from station: WNW 55mi, 89km
Updated: Tue, 28-Jan-2020 2:10pm PST
Fog, Overcast
Fog, Overcast
 Wind from SSW
Wind: SSW 8 mph , 13 km/h
Temperature: 37°F , 3°C
Wind Chill: 31°F , -1°C
Dew Point: 36°F , 2°C
Humidity: 93%
Barometer: 30.27 inHg , 1025.1 hPa
Summary: Fog
Clouds: Overcast
Visibility: 1/4 mile , 0.4 km
Cloud details: Overcast 300 ft
2020/01/28 22:10 KBLU 282210Z AUTO 20007KT 1/4SM FG VV003 03/02 A3027 RMK AO2 T00280022
 
KPVF - Placerville, California, USA
Distance from station: WSW 60mi, 96km
Updated: Tue, 28-Jan-2020 2:15pm PST
Mostly cloudy
Mostly cloudy
 Wind from S
Wind: S 6 mph , 9 km/h
Temperature: 52°F , 11°C
Dew Point: 45°F , 7°C
Humidity: 77%
Barometer: 30.29 inHg , 1025.7 hPa
Clouds: Mostly cloudy
Visibility: 10 miles , 16 km
Cloud details: Mostly cloudy 1900 ft
Mostly cloudy 2600 ft
2020/01/28 22:15 KPVF 282215Z AUTO 18005KT 10SM BKN019 BKN026 11/07 A3029 RMK AO1
KNFL - Fallon Nas, Nevada, USA
Distance from station: ENE 61mi, 97km
Updated: Tue, 28-Jan-2020 1:56pm PST
Partly cloudy
Partly cloudy
 Wind from WSW
Wind: WSW 18 mph , 30 km/h
Temperature: 59°F , 15°C
Dew Point: 23°F , -5°C
Humidity: 25%
Barometer: 30.12 inHg , 1020 hPa
Clouds: Partly cloudy
Visibility: 10 miles , 16 km
Cloud details: Partly cloudy 6000 ft
Partly cloudy 10000 ft
2020/01/28 21:56 KNFL 282156Z 25016KT 10SM SCT060 SCT100 15/M05 A3012 RMK AO2 SLP166 T01501050
 
KHTH - Hawthorne, Nevada, USA
Distance from station: ESE 68mi, 109km
Updated: Fri, 17-Jan-2020 11:35am PST
NOT Current
Clear
Clear
 Wind from SSE
Wind: SSE 6 mph , 9 km/h
Temperature: 41°F , 5°C
Wind Chill: 37°F , 3°C
Dew Point: 9°F , -13°C
Humidity: 26%
Barometer: 30.26 inHg , 1024.7 hPa
Clouds: Clear
Visibility: 10 miles , 16 km
2020/01/17 19:35 KHTH 171935Z AUTO 15005KT 10SM CLR 05/M13 A3026 RMK A01
KGOO - Grass Valley, California, USA
Distance from station: W 70mi, 112km
Updated: Tue, 28-Jan-2020 2:35pm PST
Overcast
Overcast
 Wind from varies
Wind: varies 6 mph , 9 km/h, Gust: 14 mph , 22 km/h
Temperature: 45°F , 7°C
Wind Chill: 42°F , 6°C
Dew Point: 43°F , 6°C
Humidity: 93%
Barometer: 30.25 inHg , 1024.4 hPa
Clouds: Overcast
Visibility: 10 miles , 16 km
Cloud details: Overcast 600 ft
2020/01/28 22:35 KGOO 282235Z AUTO VRB05G12KT 10SM OVC006 07/06 A3025 RMK A01
 
KAUN - Auburn Muni, California, USA
Distance from station: W 73mi, 118km
Updated: Tue, 28-Jan-2020 2:35pm PST
Partly cloudy
Partly cloudy
 Wind from SE
Wind: SE 9 mph , 15 km/h
Temperature: 54°F , 12°C
Dew Point: 48°F , 9°C
Humidity: 82%
Barometer: 30.27 inHg , 1025.1 hPa
Clouds: Partly cloudy
Visibility: 10 miles , 16 km
Cloud details: Partly cloudy 1500 ft
2020/01/28 22:35 KAUN 282235Z AUTO 13008KT 10SM SCT015 12/09 A3027 RMK A01
KO22 - Columbia, California, USA
Distance from station: SSW 79mi, 127km
Updated: Tue, 28-Jan-2020 2:35pm PST
Few Clouds
Few Clouds
 Wind from varies
Wind: varies 5 mph , 7 km/h
Temperature: 59°F , 15°C
Dew Point: 43°F , 6°C
Humidity: 55%
Barometer: 30.28 inHg , 1025.4 hPa
Clouds: Few Clouds
Visibility: 10 miles , 16 km
Cloud details: Few Clouds 4400 ft
2020/01/28 22:35 KO22 282235Z AUTO VRB04KT 10SM FEW044 15/06 A3028 RMK A01
 
KLHM - Lincoln, California, USA
Distance from station: W 88mi, 141km
Updated: Tue, 28-Jan-2020 2:35pm PST
Overcast
Overcast
 Wind from SSE
Wind: SSE 10 mph , 17 km/h, Gust: 16 mph , 26 km/h
Temperature: 59°F , 15°C
Dew Point: 50°F , 10°C
Humidity: 72%
Barometer: 30.26 inHg , 1024.7 hPa
Clouds: Overcast
Visibility: 10 miles , 16 km
Cloud details: Overcast 1900 ft
2020/01/28 22:35 KLHM 282235Z AUTO 15009G14KT 10SM OVC019 15/10 A3026 RMK AO1
KBAB - Beale Afb/Marysv, California, USA
Distance from station: W 91mi, 147km
Updated: Tue, 28-Jan-2020 1:58pm PST
Mostly cloudy
Mostly cloudy
 Wind from SSE
Wind: SSE 16 mph , 26 km/h
Temperature: 61°F , 16°C
Dew Point: 50°F , 10°C
Humidity: 68%
Barometer: 30.25 inHg , 1024.4 hPa
Clouds: Mostly cloudy
Visibility: 10 miles , 16 km
Cloud details: Mostly cloudy 1900 ft
2020/01/28 21:58 KBAB 282158Z 15014KT 10SM BKN019 16/10 A3025 RMK AO2A BKN V SCT SLP247 T01610100 $
 
KMHR - Mather Field, California, USA
Distance from station: WSW 91mi, 147km
Updated: Tue, 28-Jan-2020 1:55pm PST
Overcast
Overcast
 Wind from SSE
Wind: SSE 10 mph , 17 km/h
Temperature: 59°F , 15°C
Dew Point: 52°F , 11°C
Humidity: 77%
Barometer: 30.27 inHg , 1025.1 hPa
Clouds: Overcast
Visibility: 10 miles , 16 km
Cloud details: Overcast 2200 ft
2020/01/28 21:55 KMHR 282155Z 16009KT 10SM OVC022 15/11 A3027
KLOL - Lovelock, Nevada, USA
Distance from station: NE 94mi, 151km
Updated: Tue, 28-Jan-2020 1:53pm PST
Overcast
Overcast
 Wind from W
Wind: W 12 mph , 19 km/h
Temperature: 55°F , 13°C
Dew Point: 27°F , -3°C
Humidity: 33%
Barometer: 30.13 inHg , 1020.3 hPa
Clouds: Overcast
Visibility: 10 miles , 16 km
Cloud details: Overcast 8000 ft
2020/01/28 21:53 KLOL 282153Z AUTO 27010KT 10SM OVC080 13/M03 A3013 RMK AO2 SLP201 T01331033
 
KMCC - Mcclellan Afb, California, USA
Distance from station: WSW 94mi, 151km
Updated: Tue, 28-Jan-2020 2:35pm PST
Mostly cloudy
Mostly cloudy
 Wind from SSE
Wind: SSE 10 mph , 17 km/h, Gust: 17 mph , 28 km/h
Temperature: 59°F , 15°C
Dew Point: 54°F , 12°C
Humidity: 82%
Barometer: 30.27 inHg , 1025.1 hPa
Clouds: Mostly cloudy
Visibility: 10 miles , 16 km
Cloud details: Mostly cloudy 2000 ft
Mostly cloudy 2600 ft
2020/01/28 22:35 KMCC 282235Z AUTO 16009G15KT 10SM BKN020 BKN026 15/12 A3027 RMK AO2
KMYV - Marysville, California, USA
Distance from station: W 99mi, 159km
Updated: Tue, 28-Jan-2020 1:53pm PST
Mostly cloudy
Mostly cloudy
 Wind from SE
Wind: SE 13 mph , 20 km/h
Temperature: 57°F , 14°C
Dew Point: 52°F , 11°C
Humidity: 82%
Barometer: 30.27 inHg , 1025.1 hPa
Clouds: Mostly cloudy
Visibility: 10 miles , 16 km
Cloud details: Mostly cloudy 1500 ft
2020/01/28 21:53 KMYV 282153Z AUTO 14011KT 10SM BKN015 14/11 A3027 RMK AO2 SLP253 T01390106
 
KSVE - Susanville Muni, California, USA
Distance from station: NNW 102mi, 164km
Updated: Tue, 28-Jan-2020 2:35pm PST
Overcast
Overcast
 Wind from W
Wind: W 15 mph , 24 km/h, Gust: 20 mph , 31 km/h
Temperature: 50°F , 10°C
Wind Chill: 45°F , 7°C
Dew Point: 30°F , -1°C
Humidity: 47%
Barometer: 30.18 inHg , 1022 hPa
Clouds: Overcast
Visibility: 10 miles , 16 km
Cloud details: Overcast 5000 ft
2020/01/28 22:35 KSVE 282235Z AUTO 26013G17KT 10SM OVC050 10/M01 A3018 RMK AO2
KSAC - Sacramento, California, USA
Distance from station: WSW 103mi, 165km
Updated: Tue, 28-Jan-2020 1:53pm PST
Overcast
Overcast
 Wind from SSE
Wind: SSE 8 mph , 13 km/h
Temperature: 59°F , 15°C
Dew Point: 52°F , 11°C
Humidity: 77%
Barometer: 30.27 inHg , 1025.1 hPa
Clouds: Overcast
Visibility: 10 miles , 16 km
Cloud details: Overcast 1900 ft
2020/01/28 21:53 KSAC 282153Z 16007KT 130V190 10SM OVC019 15/11 A3027 RMK AO2 SLP251 T01500106
 
KSMF - Sacramento/Metro, California, USA
Distance from station: WSW 104mi, 167km
Updated: Tue, 28-Jan-2020 1:53pm PST
Partly cloudy
Partly cloudy
 Wind from S
Wind: S 16 mph , 26 km/h
Temperature: 57°F , 14°C
Dew Point: 52°F , 11°C
Humidity: 82%
Barometer: 30.25 inHg , 1024.4 hPa
Clouds: Partly cloudy
Visibility: 10 miles , 16 km
Cloud details: Partly cloudy 1800 ft
Partly cloudy 20000 ft
2020/01/28 21:53 KSMF 282153Z 18014KT 10SM SCT018 SCT200 14/11 A3025 RMK AO2 SLP243 T01440106
KOVE - Oroville, California, USA
Distance from station: WNW 106mi, 171km
Updated: Tue, 28-Jan-2020 2:16pm PST
Overcast
Overcast
 Wind from SSE
Wind: SSE 10 mph , 17 km/h
Temperature: 57°F , 14°C
Dew Point: 48°F , 9°C
Humidity: 72%
Barometer: 30.29 inHg , 1025.7 hPa
Clouds: Overcast
Visibility: 10 miles , 16 km
Cloud details: Few Clouds 2000 ft
Partly cloudy 3000 ft
Overcast 3800 ft
2020/01/28 22:16 KOVE 282216Z AUTO 16009KT 10SM FEW020 SCT030 OVC038 14/09 A3029 RMK AO2 T01440094
 
KMMH - Mammoth/June Lak, California, USA
Distance from station: SSE 110mi, 177km
Updated: Tue, 28-Jan-2020 2:38pm PST
Clear
Clear
 Wind from W
Wind: W 20 mph , 31 km/h, Gust: 24 mph , 39 km/h
Temperature: 46°F , 8°C
Wind Chill: 38°F , 3°C
Dew Point: 3°F , -16°C
Humidity: 17%
Barometer: 30.19 inHg , 1022.4 hPa
Clouds: Clear
Visibility: 10 miles , 16 km
2020/01/28 22:38 KMMH 282238Z AUTO 28017G21KT 10SM CLR 08/M16 A3019 RMK AO2
KSCK - Stockton, California, USA
Distance from station: SW 114mi, 183km
Updated: Tue, 28-Jan-2020 1:55pm PST
Overcast
Overcast
 Wind from WNW
Wind: WNW 5 mph , 7 km/h
Temperature: 63°F , 17°C
Dew Point: 52°F , 11°C
Humidity: 68%
Barometer: 30.29 inHg , 1025.7 hPa
Clouds: Overcast
Visibility: 10 miles , 16 km
Cloud details: Overcast 3200 ft
2020/01/28 21:55 KSCK 282155Z 30004KT 10SM OVC032 17/11 A3029 RMK AO2 SLP255 T01720106
 
KEDU - Davis, California, USA
Distance from station: WSW 116mi, 187km
Updated: Tue, 28-Jan-2020 2:35pm PST
Few Clouds
Few Clouds
 Wind from SSW
Wind: SSW 10 mph , 17 km/h
Temperature: 61°F , 16°C
Dew Point: 54°F , 12°C
Humidity: 77%
Barometer: 30.26 inHg , 1024.7 hPa
Clouds: Few Clouds
Visibility: 10 miles , 16 km
Cloud details: Few Clouds 1900 ft
2020/01/28 22:35 KEDU 282235Z AUTO 20009KT 10SM FEW019 16/12 A3026 RMK AO1
KMOD - Modesto, California, USA
Distance from station: SW 119mi, 191km
Updated: Tue, 28-Jan-2020 1:53pm PST
Mostly cloudy
Mostly cloudy
 Wind from NW
Wind: NW 7 mph , 11 km/h
Temperature: 63°F , 17°C
Dew Point: 48°F , 9°C
Humidity: 59%
Barometer: 30.28 inHg , 1025.4 hPa
Clouds: Mostly cloudy
Visibility: 10 miles , 16 km
Cloud details: Mostly cloudy 4200 ft
2020/01/28 21:53 KMOD 282153Z COR 32006KT 10SM BKN042 17/09 A3028 RMK AO2 SLP255 T01670094
 
KMER - Merced/Castle Af, California, USA
Distance from station: SSW 123mi, 198km
Updated: Tue, 28-Jan-2020 1:45pm PST
Partly cloudy
Partly cloudy
 Wind from calm
Wind: Calm
Temperature: 64°F , 18°C
Dew Point: 52°F , 11°C
Humidity: 64%
Barometer: 30.29 inHg , 1025.7 hPa
Clouds: Partly cloudy
Visibility: 10 miles , 16 km
Cloud details: Partly cloudy 7500 ft
2020/01/28 21:45 KMER 282145Z 00000KT 10SM SCT075 18/11 A3029
KCIC - Chico Municipal, California, USA
Distance from station: WNW 124mi, 199km
Updated: Tue, 28-Jan-2020 1:47pm PST
Overcast
Overcast
 Wind from SSE
Wind: SSE 15 mph , 24 km/h
Temperature: 55°F , 13°C
Dew Point: 48°F , 9°C
Humidity: 77%
Barometer: 30.29 inHg , 1025.7 hPa
Clouds: Overcast
Visibility: 10 miles , 16 km
Cloud details: Overcast 2300 ft
2020/01/28 21:47 KCIC 282147Z 15013KT 10SM OVC023 13/09 A3029
 
KMCE - Merced, California, USA
Distance from station: SSW 128mi, 207km
Updated: Tue, 28-Jan-2020 1:53pm PST
Clear
Clear
 Wind from NW
Wind: NW 5 mph , 7 km/h
Temperature: 63°F , 17°C
Dew Point: 46°F , 8°C
Humidity: 56%
Barometer: 30.28 inHg , 1025.4 hPa
Clouds: Clear
Visibility: 10 miles , 16 km
2020/01/28 21:53 KMCE 282153Z AUTO 31004KT 10SM CLR 17/08 A3028 RMK AO2 SLP255 T01670083
KVCB - Vacaville, California, USA
Distance from station: WSW 128mi, 207km
Updated: Tue, 28-Jan-2020 1:53pm PST
Partly cloudy
Partly cloudy
 Wind from S
Wind: S 7 mph , 11 km/h
Temperature: 63°F , 17°C
Dew Point: 52°F , 11°C
Humidity: 68%
Barometer: 30.28 inHg , 1025.4 hPa
Clouds: Partly cloudy
Visibility: 10 miles , 16 km
Cloud details: Partly cloudy 1800 ft
2020/01/28 21:53 KVCB 282153Z AUTO 19006KT 10SM SCT018 17/11 A3028 RMK AO2 SLP252 T01720111
 
KSUU - Travis Afb/Fairf, California, USA
Distance from station: WSW 130mi, 209km
Updated: Tue, 28-Jan-2020 2:13pm PST
Partly cloudy
Partly cloudy
 Wind from S
Wind: S 12 mph , 19 km/h
Temperature: 63°F , 17°C
Dew Point: 54°F , 12°C
Humidity: 73%
Barometer: 30.26 inHg , 1024.7 hPa
Clouds: Partly cloudy
Visibility: 10 miles , 16 km
Cloud details: Partly cloudy 1500 ft
2020/01/28 22:13 KSUU 282213Z 18010KT 10SM SCT015 17/12 A3026 RMK AO2A SLP254 $
KBIH - Bishop, California, USA
Distance from station: SE 137mi, 221km
Updated: Tue, 28-Jan-2020 1:56pm PST
Clear
Clear
 Wind from SE
Wind: SE 9 mph , 15 km/h
Temperature: 61°F , 16°C
Dew Point: 19°F , -7°C
Humidity: 20%
Barometer: 30.09 inHg , 1019 hPa
Clouds: Clear
Visibility: 10 miles , 16 km
2020/01/28 21:56 KBIH 282156Z AUTO 14008KT 10SM CLR 16/M07 A3009 RMK AO2 SLP176 T01611072
 
KMAE - Madera, California, USA
Distance from station: S 144mi, 231km
Updated: Tue, 28-Jan-2020 1:53pm PST
Clear
Clear
 Wind from NW
Wind: NW 9 mph , 15 km/h
Temperature: 61°F , 16°C
Dew Point: 46°F , 8°C
Humidity: 59%
Barometer: 30.30 inHg , 1026.1 hPa
Clouds: Clear
Visibility: 10 miles , 16 km
2020/01/28 21:53 KMAE 282153Z AUTO 31008KT 10SM CLR 16/08 A3030 RMK AO2 SLP260 T01560083
KCCR - Concord, California, USA
Distance from station: WSW 145mi, 233km
Updated: Tue, 28-Jan-2020 1:53pm PST
Clear
Clear
 Wind from S
Wind: S 9 mph , 15 km/h
Temperature: 61°F , 16°C
Dew Point: 52°F , 11°C
Humidity: 72%
Barometer: 30.28 inHg , 1025.4 hPa
Clouds: Clear
Visibility: 10 miles , 16 km
2020/01/28 21:53 KCCR 282153Z 19008KT 10SM CLR 16/11 A3028 RMK AO2 SLP241 T01560111
 
KLVK - Livermore, California, USA
Distance from station: SW 146mi, 236km
Updated: Tue, 28-Jan-2020 2:37pm PST
Partly cloudy
Partly cloudy
 Wind from W
Wind: W 5 mph , 7 km/h
Temperature: 57°F , 14°C
Dew Point: 54°F , 12°C
Humidity: 88%
Barometer: 30.28 inHg , 1025.4 hPa
Clouds: Partly cloudy
Visibility: 10 miles , 16 km
Cloud details: Partly cloudy 2000 ft
2020/01/28 22:37 KLVK 282237Z 27004KT 10SM SCT020 14/12 A3028 RMK AO2 T01390117
KAPC - Napa, California, USA
Distance from station: WSW 150mi, 241km
Updated: Tue, 28-Jan-2020 1:54pm PST
Partly cloudy
Partly cloudy
 Wind from SSW
Wind: SSW 12 mph , 19 km/h
Temperature: 59°F , 15°C
Dew Point: 54°F , 12°C
Humidity: 82%
Barometer: 30.28 inHg , 1025.4 hPa
Clouds: Partly cloudy
Visibility: 10 miles , 16 km
Cloud details: Partly cloudy 900 ft
Partly cloudy 1600 ft
2020/01/28 21:54 KAPC 282154Z 20010KT 10SM SCT009 SCT016 15/12 A3028 RMK AO2 SLP243 T01500117
 
KRBL - Red Bluff, California, USA
Distance from station: WNW 155mi, 249km
Updated: Tue, 28-Jan-2020 1:54pm PST
Partly cloudy
Partly cloudy
 Wind from SSE
Wind: SSE 14 mph , 22 km/h
Temperature: 55°F , 13°C
Dew Point: 48°F , 9°C
Humidity: 77%
Barometer: 30.28 inHg , 1025.4 hPa
Clouds: Partly cloudy
Visibility: 10 miles , 16 km
Cloud details: Partly cloudy 2100 ft
2020/01/28 21:54 KRBL 282154Z AUTO 16012KT 10SM SCT021 13/09 A3028 RMK AO2 RAE2058 SLP251 P0000 T01330094
KFAT - Fresno, California, USA
Distance from station: S 156mi, 251km
Updated: Tue, 28-Jan-2020 1:53pm PST
Mostly cloudy
Mostly cloudy
 Wind from NW
Wind: NW 10 mph , 17 km/h
Temperature: 61°F , 16°C
Dew Point: 43°F , 6°C
Humidity: 52%
Barometer: 30.30 inHg , 1026.1 hPa
Clouds: Mostly cloudy
Visibility: 10 miles , 16 km
Cloud details: Mostly cloudy 3400 ft
Mostly cloudy 20000 ft
2020/01/28 21:53 KFAT 282153Z 32009KT 10SM BKN034 BKN200 16/06 A3030 RMK AO2 SLP259 MTNS PTLY OBSC CU BLDUP DSNT N-E-SE T01560061
 
KTPH - Tonopah, Nevada, USA
Distance from station: ESE 158mi, 254km
Updated: Tue, 28-Jan-2020 1:56pm PST
Clear
Clear
 Wind from N
Wind: N 5 mph , 7 km/h
Temperature: 48°F , 9°C
Wind Chill: 46°F , 8°C
Dew Point: 23°F , -5°C
Humidity: 37%
Barometer: 30.14 inHg , 1020.7 hPa
Clouds: Clear
Visibility: 10 miles , 16 km
2020/01/28 21:56 KTPH 282156Z AUTO 01004KT 10SM CLR 09/M05 A3014 RMK AO2 SLP206 T00891050
KFCH - Fresno Chandler, California, USA
Distance from station: S 161mi, 258km
Updated: Tue, 28-Jan-2020 2:35pm PST
Few Clouds
Few Clouds
 Wind from WNW
Wind: WNW 13 mph , 20 km/h
Temperature: 61°F , 16°C
Dew Point: 45°F , 7°C
Humidity: 55%
Barometer: 30.29 inHg , 1025.7 hPa
Clouds: Few Clouds
Visibility: 10 miles , 16 km
Cloud details: Few Clouds 3600 ft
2020/01/28 22:35 KFCH 282235Z AUTO 29011KT 10SM FEW036 16/07 A3029 RMK A01
 
KHWD - Hayward, California, USA
Distance from station: SW 161mi, 259km
Updated: Tue, 28-Jan-2020 1:54pm PST
Mostly cloudy
Mostly cloudy
 Wind from S
Wind: S 3 mph , 6 km/h
Temperature: 57°F , 14°C
Dew Point: 54°F , 12°C
Humidity: 88%
Barometer: 30.30 inHg , 1026.1 hPa
Clouds: Mostly cloudy
Visibility: 10 miles , 16 km
Cloud details: Mostly cloudy 1900 ft
2020/01/28 21:54 KHWD 282154Z 19003KT 10SM BKN019 14/12 A3030 RMK AO2 RAE01 SLP270 P0000 T01440117
KOAK - Oakland, California, USA
Distance from station: SW 164mi, 264km
Updated: Tue, 28-Jan-2020 1:53pm PST
Mostly cloudy
Mostly cloudy
 Wind from SE
Wind: SE 7 mph , 11 km/h
Temperature: 59°F , 15°C
Dew Point: 55°F , 13°C
Humidity: 88%
Barometer: 30.30 inHg , 1026.1 hPa
Clouds: Mostly cloudy
Visibility: 10 miles , 16 km
Cloud details: Partly cloudy 800 ft
Mostly cloudy 1900 ft
Mostly cloudy 4500 ft
2020/01/28 21:53 KOAK 282153Z 14006KT 10SM SCT008 BKN019 BKN045 15/13 A3030 RMK AO2 SLP260 T01500128
 
KWMC - Winnemucca, Nevada, USA
Distance from station: NE 164mi, 264km
Updated: Tue, 28-Jan-2020 1:56pm PST
Partly cloudy
Partly cloudy
 Wind from W
Wind: W 23 mph , 37 km/h, Gust: 32 mph , 52 km/h
Temperature: 52°F , 11°C
Dew Point: 25°F , -4°C
Humidity: 35%
Barometer: 30.10 inHg , 1019.3 hPa
Clouds: Partly cloudy
Visibility: 10 miles , 16 km
Cloud details: Partly cloudy 8000 ft
2020/01/28 21:56 KWMC 282156Z AUTO 28020G28KT 10SM SCT080 11/M04 A3010 RMK AO2 PK WND 27028/2153 SLP181 T01111044
KDVO - Novato/Gnoss Fld, California, USA
Distance from station: WSW 165mi, 265km
Updated: Tue, 28-Jan-2020 2:35pm PST
Few Clouds
Few Clouds
 Wind from W
Wind: W 9 mph , 15 km/h
Temperature: 61°F , 16°C
Dew Point: 48°F , 9°C
Humidity: 63%
Barometer: 30.28 inHg , 1025.4 hPa
Clouds: Few Clouds
Visibility: 10 miles , 16 km
Cloud details: Few Clouds 2800 ft
2020/01/28 22:35 KDVO 282235Z AUTO 27008KT 10SM FEW028 16/09 A3028 RMK AO2
 
KO69 - Petaluma, California, USA
Distance from station: WSW 165mi, 265km
Updated: Tue, 28-Jan-2020 2:35pm PST
Clear
Clear
 Wind from W
Wind: W 9 mph , 15 km/h, Gust: 17 mph , 28 km/h
Temperature: 59°F , 15°C
Dew Point: 52°F , 11°C
Humidity: 77%
Barometer: 30.28 inHg , 1025.4 hPa
Clouds: Clear
Visibility: 10 miles , 16 km
2020/01/28 22:35 KO69 282235Z AUTO 26008G15KT 10SM CLR 15/11 A3028 RMK A01
KRHV - San Jose/Reid, California, USA
Distance from station: SW 165mi, 265km
Updated: Tue, 28-Jan-2020 1:50pm PST
Mostly cloudy
Mostly cloudy
 Wind from NNW
Wind: NNW 6 mph , 9 km/h
Temperature: 61°F , 16°C
Dew Point: 52°F , 11°C
Humidity: 72%
Barometer: 30.30 inHg , 1026.1 hPa
Clouds: Mostly cloudy
Visibility: 10 miles , 16 km
Cloud details: Few Clouds 1500 ft
Mostly cloudy 2500 ft
2020/01/28 21:50 KRHV 282150Z 33005KT 10SM FEW015 BKN025 16/11 A3030
 
KSJC - San Jose, California, USA
Distance from station: SW 166mi, 267km
Updated: Tue, 28-Jan-2020 2:19pm PST
Mostly cloudy
Mostly cloudy
 Wind from N
Wind: N 3 mph , 6 km/h
Temperature: 59°F , 15°C
Dew Point: 55°F , 13°C
Humidity: 88%
Barometer: 30.31 inHg , 1026.4 hPa
Clouds: Mostly cloudy
Visibility: 10 miles , 16 km
Cloud details: Few Clouds 100 ft
Partly cloudy 1300 ft
Mostly cloudy 3400 ft
2020/01/28 22:19 KSJC 282219Z 36003KT 10SM FEW001 SCT013 BKN034 15/13 A3031 RMK AO2 RAE16 P0001 T01500133
KE16 - San Martin, California, USA
Distance from station: SW 169mi, 273km
Updated: Thu, 14-Nov-2019 1:35am PST
NOT Current
Overcast
Overcast
 Wind from SE
Wind: SE 7 mph , 11 km/h
Temperature: 54°F , 12°C
Dew Point: 50°F , 10°C
Humidity: 88%
Barometer: 30.05 inHg , 1017.6 hPa
Clouds: Overcast
Visibility: 10 miles , 16 km
Cloud details: Overcast 1400 ft
2019/11/14 09:35 KE16 140935Z AUTO 13006KT 10SM OVC014 12/10 A3005 RMK AO2
 
KPAO - Palo Alto, California, USA
Distance from station: SW 169mi, 273km
Updated: Tue, 28-Jan-2020 1:47pm PST
Mostly cloudy
Mostly cloudy
 Wind from varies
Wind: varies 3 mph , 6 km/h
Temperature: 57°F , 14°C
Dew Point: 52°F , 11°C
Humidity: 82%
Barometer: 30.31 inHg , 1026.4 hPa
Clouds: Mostly cloudy
Visibility: 10 miles , 16 km
Cloud details: Partly cloudy 1500 ft
Mostly cloudy 12000 ft
2020/01/28 21:47 KPAO 282147Z VRB03KT 10SM SCT015 BKN120 14/11 A3031
KNUQ - Moffett Nas/Mtn, California, USA
Distance from station: SW 170mi, 273km
Updated: Thu, 21-Nov-2019 8:56am PST
NOT Current

 
Barometer: 29.86 inHg , 1011.2 hPa
2019/11/21 16:56 KNUQ 211656Z AUTO A2986 RMK AO2 SLP116 PWINO $
 
KRDD - Redding, California, USA
Distance from station: NW 171mi, 275km
Updated: Tue, 28-Jan-2020 1:53pm PST
Overcast
Overcast
 Wind from S
Wind: S 10 mph , 17 km/h
Temperature: 57°F , 14°C
Dew Point: 48°F , 9°C
Humidity: 72%
Barometer: 30.24 inHg , 1024 hPa
Clouds: Overcast
Visibility: 9 miles , 14 km
Cloud details: Overcast 6500 ft
2020/01/28 21:53 KRDD 282153Z 19009KT 9SM OVC065 14/09 A3024 RMK AO2 SLP239 T01390089
KSTS - Santa Rosa, California, USA
Distance from station: WSW 171mi, 275km
Updated: Tue, 28-Jan-2020 1:53pm PST
Partly cloudy
Partly cloudy
 Wind from WSW
Wind: WSW 9 mph , 15 km/h
Temperature: 63°F , 17°C
Dew Point: 48°F , 9°C
Humidity: 59%
Barometer: 30.26 inHg , 1024.7 hPa
Clouds: Partly cloudy
Visibility: 10 miles , 16 km
Cloud details: Partly cloudy 3700 ft
2020/01/28 21:53 KSTS 282153Z 25008KT 10SM SCT037 17/09 A3026 RMK AO2 SLP240 T01670089
 
KSQL - San Carlos Airpo, California, USA
Distance from station: SW 173mi, 278km
Updated: Tue, 28-Jan-2020 1:52pm PST
Mostly cloudy
Mostly cloudy
 Wind from W
Wind: W 7 mph , 11 km/h
Temperature: 59°F , 15°C
Dew Point: 52°F , 11°C
Humidity: 77%
Barometer: 30.31 inHg , 1026.4 hPa
Clouds: Mostly cloudy
Visibility: 10 miles , 16 km
Cloud details: Partly cloudy 2700 ft
Mostly cloudy 5000 ft
2020/01/28 21:52 KSQL 282152Z 26006KT 10SM SCT027 BKN050 15/11 A3031
KCVH - Hollister Muni, California, USA
Distance from station: SSW 174mi, 280km
Updated: Tue, 28-Jan-2020 2:40pm PST
Clear
Clear
 Wind from calm
Wind: Calm
Temperature: 63°F , 17°C
Dew Point: 50°F , 10°C
Humidity: 64%
Barometer: 30.30 inHg , 1026.1 hPa
Clouds: Clear
Visibility: 10 miles , 16 km
2020/01/28 22:40 KCVH 282240Z AUTO 00000KT 10SM CLR 17/10 A3030 RMK A01
 
KSFO - San Francisco, California, USA
Distance from station: SW 174mi, 280km
Updated: Tue, 28-Jan-2020 2:31pm PST
Mostly cloudy
Mostly cloudy
 Wind from WNW
Wind: WNW 9 mph , 15 km/h
Temperature: 59°F , 15°C
Dew Point: 50°F , 10°C
Humidity: 72%
Barometer: 30.28 inHg , 1025.4 hPa
Clouds: Mostly cloudy
Visibility: 10 miles , 16 km
Cloud details: Few Clouds 2100 ft
Mostly cloudy 2800 ft
Mostly cloudy 20000 ft
2020/01/28 22:31 KSFO 282231Z 29008KT 10SM FEW021 BKN028 BKN200 15/10 A3028 RMK AO2 T01500100
KAAT - Alturas, California, USA
Distance from station: NNW 175mi, 281km
Updated: Tue, 28-Jan-2020 1:55pm PST
Overcast
Overcast
 Wind from WSW
Wind: WSW 24 mph , 39 km/h, Gust: 31 mph , 50 km/h
Temperature: 43°F , 6°C
Wind Chill: 34°F , 1°C
Dew Point: 30°F , -1°C
Humidity: 61%
Barometer: 30.16 inHg , 1021.3 hPa
Clouds: Overcast
Visibility: 10 miles , 16 km
Cloud details: Few Clouds 2900 ft
Mostly cloudy 5000 ft
Overcast 6000 ft
2020/01/28 21:55 KAAT 282155Z AUTO 25021G27KT 10SM FEW029 BKN050 OVC060 06/M01 A3016 RMK AO2 PK WND 25027/2154 SLP216 T00561006
 
KBAM - Battle Mtn (vor), Nevada, USA
Distance from station: NE 182mi, 294km
Updated: Tue, 28-Jan-2020 2:35pm PST
Partly cloudy
Partly cloudy
 Wind from W
Wind: W 8 mph , 13 km/h
Temperature: 50°F , 10°C
Wind Chill: 47°F , 8°C
Dew Point: 28°F , -2°C
Humidity: 43%
Barometer: 30.10 inHg , 1019.3 hPa
Clouds: Partly cloudy
Visibility: 10 miles , 16 km
Cloud details: Partly cloudy 7500 ft
Partly cloudy 8500 ft
2020/01/28 22:35 KBAM 282235Z AUTO 28007KT 10SM SCT075 SCT085 10/M02 A3010 RMK AO1
KHAF - Half Moon Bay, California, USA
Distance from station: SW 184mi, 296km
Updated: Tue, 28-Jan-2020 2:35pm PST
Mist, Overcast
Mist, Overcast
 Wind from S
Wind: S 9 mph , 15 km/h
Temperature: 54°F , 12°C
Dew Point: 52°F , 11°C
Humidity: 94%
Barometer: 30.31 inHg , 1026.4 hPa
Summary: Mist
Clouds: Overcast
Visibility: 6 miles , 10 km
Cloud details: Overcast 600 ft
2020/01/28 22:35 KHAF 282235Z AUTO 17008KT 6SM BR OVC006 12/11 A3031 RMK AO2
 
KWVI - Watsonville, California, USA
Distance from station: SW 184mi, 296km
Updated: Tue, 28-Jan-2020 1:53pm PST
Few Clouds
Few Clouds
 Wind from varies
Wind: varies 7 mph , 11 km/h
Temperature: 63°F , 17°C
Dew Point: 52°F , 11°C
Humidity: 68%
Barometer: 30.31 inHg , 1026.4 hPa
Clouds: Few Clouds
Visibility: 10 miles , 16 km
Cloud details: Few Clouds 3000 ft
Few Clouds 3700 ft
2020/01/28 21:53 KWVI 282153Z AUTO VRB06KT 10SM FEW030 FEW037 17/11 A3031 RMK AO2 SLP263 T01670106
KUKI - Ukiah, California, USA
Distance from station: W 187mi, 300km
Updated: Tue, 28-Jan-2020 1:56pm PST
Mostly cloudy
Mostly cloudy
 Wind from WNW
Wind: WNW 10 mph , 17 km/h, Gust: 18 mph , 30 km/h
Temperature: 59°F , 15°C
Dew Point: 43°F , 6°C
Humidity: 55%
Barometer: 30.26 inHg , 1024.7 hPa
Clouds: Mostly cloudy
Visibility: 10 miles , 16 km
Cloud details: Mostly cloudy 5000 ft
2020/01/28 21:56 KUKI 282156Z AUTO 30009G16KT 10SM BKN050 15/06 A3026 RMK AO2 SLP243 T01500056
 
KHJO - Hanford, California, USA
Distance from station: S 188mi, 303km
Updated: Tue, 28-Jan-2020 1:53pm PST
Few Clouds
Few Clouds
 Wind from varies
Wind: varies 5 mph , 7 km/h
Temperature: 61°F , 16°C
Dew Point: 45°F , 7°C
Humidity: 55%
Barometer: 30.29 inHg , 1025.7 hPa
Clouds: Few Clouds
Visibility: 10 miles , 16 km
Cloud details: Few Clouds 3400 ft
2020/01/28 21:53 KHJO 282153Z AUTO VRB04KT 10SM FEW034 16/07 A3029 RMK AO2 SLP260 T01610067
KNLC - Lemoore Nas/Reev, California, USA
Distance from station: S 188mi, 303km
Updated: Tue, 28-Jan-2020 1:56pm PST
Partly cloudy
Partly cloudy
 Wind from N
Wind: N 13 mph , 20 km/h
Temperature: 61°F , 16°C
Dew Point: 46°F , 8°C
Humidity: 59%
Barometer: 30.30 inHg , 1026.1 hPa
Clouds: Partly cloudy
Visibility: 10 miles , 16 km
Cloud details: Partly cloudy 3600 ft
2020/01/28 21:56 KNLC 282156Z 36011KT 10SM SCT036 16/08 A3030 RMK AO2 SLP261 RH/59 T01610083
 
KVIS - Visalia Muni, California, USA
Distance from station: S 189mi, 304km
Updated: Tue, 28-Jan-2020 1:56pm PST
Mostly cloudy
Mostly cloudy
 Wind from NW
Wind: NW 8 mph , 13 km/h
Temperature: 57°F , 14°C
Dew Point: 48°F , 9°C
Humidity: 72%
Barometer: 30.30 inHg , 1026.1 hPa
Clouds: Mostly cloudy
Visibility: 10 miles , 16 km
Cloud details: Partly cloudy 2700 ft
Mostly cloudy 4300 ft
2020/01/28 21:56 KVIS 282156Z AUTO 32007KT 10SM SCT027 BKN043 14/09 A3030 RMK AO2 SLP271 T01440089
KSNS - Salinas, California, USA
Distance from station: SSW 193mi, 311km
Updated: Tue, 28-Jan-2020 1:53pm PST
Mostly cloudy
Mostly cloudy
 Wind from WNW
Wind: WNW 7 mph , 11 km/h
Temperature: 63°F , 17°C
Dew Point: 50°F , 10°C
Humidity: 64%
Barometer: 30.30 inHg , 1026.1 hPa
Clouds: Mostly cloudy
Visibility: 10 miles , 16 km
Cloud details: Mostly cloudy 3400 ft
2020/01/28 21:53 KSNS 282153Z 29006KT 10SM BKN034 17/10 A3030 RMK AO2 SLP269 T01670100
 
K05U - Eureka, Nevada, USA
Distance from station: ENE 203mi, 326km
Updated: Tue, 28-Jan-2020 2:35pm PST
Clear
Clear
 Wind from W
Wind: W 10 mph , 17 km/h, Gust: 23 mph , 37 km/h
Temperature: 50°F , 10°C
Wind Chill: 46°F , 8°C
Dew Point: 16°F , -9°C
Humidity: 25%
Barometer: 30.12 inHg , 1020 hPa
Clouds: Clear
Visibility: 10 miles , 16 km
2020/01/28 22:35 K05U 282235Z AUTO 28009G20KT 10SM CLR 10/M09 A3012 RMK A01
KP68 - Eureka, Nevada, USA
Distance from station: ENE 203mi, 326km
Updated: Tue, 28-Jan-2020 1:53pm PST

 Wind from varies
Wind: varies 6 mph , 9 km/h
Temperature: 46°F , 8°C
Wind Chill: 43°F , 6°C
Dew Point: 21°F , -6°C
Humidity: 37%
Barometer: 30.11 inHg , 1019.6 hPa
2020/01/28 21:53 KP68 282153Z AUTO VRB05KT 08/M06 A3011 RMK AO1 SLP183 T00831061
 
KMRY - Monterey, California, USA
Distance from station: SW 206mi, 331km
Updated: Tue, 28-Jan-2020 2:33pm PST
Mostly cloudy
Mostly cloudy
 Wind from W
Wind: W 10 mph , 17 km/h
Temperature: 61°F , 16°C
Dew Point: 52°F , 11°C
Humidity: 72%
Barometer: 30.31 inHg , 1026.4 hPa
Clouds: Mostly cloudy
Visibility: 10 miles , 16 km
Cloud details: Mostly cloudy 2000 ft
Mostly cloudy 3000 ft
2020/01/28 22:33 KMRY 282233Z 26009KT 10SM BKN020 BKN030 16/11 A3031 RMK AO2 T01610106 $
KO54 - Weaverville, California, USA
Distance from station: NW 207mi, 332km
Updated: Tue, 28-Jan-2020 2:35pm PST
Mostly cloudy
Mostly cloudy
 Wind from S
Wind: S 7 mph , 11 km/h, Gust: 20 mph , 31 km/h
Temperature: 52°F , 11°C
Dew Point: 39°F , 4°C
Humidity: 62%
Barometer: 30.24 inHg , 1024 hPa
Clouds: Mostly cloudy
Visibility: 10 miles , 16 km
Cloud details: Few Clouds 3100 ft
Partly cloudy 3500 ft
Mostly cloudy 4800 ft
2020/01/28 22:35 KO54 282235Z AUTO 17006G17KT 10SM FEW031 SCT035 BKN048 11/04 A3024 RMK AO1
 
KO86 - Trinity Center, California, USA
Distance from station: NW 207mi, 333km
Updated: Sun, 08-Dec-2019 9:55am PST
NOT Current
Partly cloudy
Partly cloudy
 Wind from calm
Wind: Calm
Temperature: 45°F , 7°C
Dew Point: 41°F , 5°C
Humidity: 87%
Barometer: 30.05 inHg , 1017.6 hPa
Clouds: Partly cloudy
Visibility: 10 miles , 16 km
Cloud details: Few Clouds 1800 ft
Partly cloudy 5000 ft
2019/12/08 17:55 KO86 081755Z AUTO 00000KT 10SM FEW018 SCT050 07/05 A3005 RMK AO1
KMHS - Mount Shasta, California, USA
Distance from station: NW 209mi, 336km
Updated: Tue, 28-Jan-2020 1:56pm PST
Light rain, Overcast
Light rain, Overcast
 Wind from ESE
Wind: ESE 3 mph , 6 km/h
Temperature: 43°F , 6°C
Dew Point: 37°F , 3°C
Humidity: 81%
Barometer: 30.19 inHg , 1022.4 hPa
Summary: Light rain
Clouds: Overcast
Visibility: 10 miles , 16 km
Cloud details: Overcast 3200 ft
2020/01/28 21:56 KMHS 282156Z AUTO 11003KT 10SM -RA OVC032 06/03 A3019 RMK AO2 RAB31 SLP248 P0000 T00560033 $
 
KPTV - Porterville, California, USA
Distance from station: S 212mi, 341km
Updated: Tue, 28-Jan-2020 1:56pm PST
Overcast
Overcast
 Wind from WNW
Wind: WNW 13 mph , 20 km/h
Temperature: 59°F , 15°C
Dew Point: 48°F , 9°C
Humidity: 68%
Barometer: 30.31 inHg , 1026.4 hPa
Clouds: Overcast
Visibility: 10 miles , 16 km
Cloud details: Few Clouds 2200 ft
Overcast 4900 ft
2020/01/28 21:56 KPTV 282156Z AUTO 29011KT 10SM FEW022 OVC049 15/09 A3031 RMK AO2 SLP264 T01500094
KLKV - Lakeview, Oregon, USA
Distance from station: N 219mi, 353km
Updated: Tue, 28-Jan-2020 1:53pm PST
Overcast
Overcast
 Wind from SSW
Wind: SSW 10 mph , 17 km/h
Temperature: 37°F , 3°C
Wind Chill: 30°F , -1°C
Dew Point: 32°F , 0°C
Humidity: 81%
Barometer: 30.12 inHg , 1020 hPa
Clouds: Overcast
Visibility: 10 miles , 16 km
Cloud details: Overcast 3200 ft
2020/01/28 21:53 KLKV 282153Z AUTO 21009KT 10SM OVC032 03/00 A3012 RMK AO2 SLP219 T00330000
 
KSIY - Montague/Siskiyo, California, USA
Distance from station: NW 237mi, 382km
Updated: Tue, 28-Jan-2020 1:53pm PST
Few Clouds
Few Clouds
 Wind from WSW
Wind: WSW 14 mph , 22 km/h
Temperature: 54°F , 12°C
Dew Point: 36°F , 2°C
Humidity: 51%
Barometer: 30.16 inHg , 1021.3 hPa
Clouds: Few Clouds
Visibility: 10 miles , 16 km
Cloud details: Few Clouds 4400 ft
Few Clouds 5000 ft
2020/01/28 21:53 KSIY 282153Z AUTO 25012KT 10SM FEW044 FEW050 12/02 A3016 RMK AO2 SLP222 T01170022
KPRB - Paso Robles, California, USA
Distance from station: SSW 238mi, 383km
Updated: Tue, 28-Jan-2020 1:53pm PST
Clear
Clear
 Wind from N
Wind: N 7 mph , 11 km/h
Temperature: 61°F , 16°C
Dew Point: 45°F , 7°C
Humidity: 55%
Barometer: 30.27 inHg , 1025.1 hPa
Clouds: Clear
Visibility: 10 miles , 16 km
2020/01/28 21:53 KPRB 282153Z AUTO 35006KT 10SM CLR 16/07 A3027 RMK AO2 SLP249 T01610067
 
KLMT - Klamath Falls, Oregon, USA
Distance from station: NNW 239mi, 385km
Updated: Tue, 28-Jan-2020 1:53pm PST
Partly cloudy
Partly cloudy
 Wind from WSW
Wind: WSW 20 mph , 31 km/h, Gust: 29 mph , 46 km/h
Temperature: 45°F , 7°C
Wind Chill: 37°F , 3°C
Dew Point: 34°F , 1°C
Humidity: 66%
Barometer: 30.11 inHg , 1019.6 hPa
Clouds: Partly cloudy
Visibility: 10 miles , 16 km
Cloud details: Few Clouds 2900 ft
Partly cloudy 3600 ft
Partly cloudy 4300 ft
2020/01/28 21:53 KLMT 282153Z 25017G25KT 10SM FEW029 SCT036 SCT043 07/01 A3011 RMK AO2 PK WND 26027/2143 SLP192 T00720006
KEKO - Elko, Nevada, USA
Distance from station: ENE 242mi, 390km
Updated: Tue, 28-Jan-2020 1:56pm PST
Overcast
Overcast
 Wind from W
Wind: W 8 mph , 13 km/h
Temperature: 48°F , 9°C
Wind Chill: 44°F , 7°C
Dew Point: 27°F , -3°C
Humidity: 43%
Barometer: 30.10 inHg , 1019.3 hPa
Clouds: Overcast
Visibility: 10 miles , 16 km
Cloud details: Overcast 6000 ft
2020/01/28 21:56 KEKO 282156Z AUTO 26007KT 10SM OVC060 09/M03 A3010 RMK AO2 SLP187 T00941033
 
KBFL - Bakersfield, California, USA
Distance from station: S 252mi, 405km
Updated: Tue, 28-Jan-2020 2:37pm PST
Mostly cloudy
Mostly cloudy
 Wind from NW
Wind: NW 8 mph , 13 km/h
Temperature: 57°F , 14°C
Dew Point: 46°F , 8°C
Humidity: 67%
Barometer: 30.28 inHg , 1025.4 hPa
Clouds: Mostly cloudy
Visibility: 10 miles , 16 km
Cloud details: Mostly cloudy 2600 ft
2020/01/28 22:37 KBFL 282237Z 32007KT 10SM BKN026 14/08 A3028 RMK AO2 T01440078
KFOT - Fortuna, California, USA
Distance from station: WNW 256mi, 413km
Updated: Tue, 28-Jan-2020 12:20pm PST
NOT Current
Mostly cloudy
Mostly cloudy
 Wind from calm
Wind: Calm
Temperature: 54°F , 12°C
Dew Point: 50°F , 10°C
Humidity: 88%
Barometer: 30.32 inHg , 1026.8 hPa
Clouds: Mostly cloudy
Visibility: 8 miles , 13 km
Cloud details: Partly cloudy 3900 ft
Mostly cloudy 4800 ft
Mostly cloudy 6000 ft
2020/01/28 20:20 KFOT 282020Z AUTO 00000KT 8SM SCT039 BKN048 BKN060 12/10 A3032 RMK AO1
 
KNID - China Lake (naf), California, USA
Distance from station: SSE 259mi, 417km
Updated: Tue, 28-Jan-2020 1:56pm PST
Mostly cloudy
Mostly cloudy
 Wind from S
Wind: S 3 mph , 6 km/h
Temperature: 61°F , 16°C
Dew Point: 30°F , -1°C
Humidity: 31%
Barometer: 30.12 inHg , 1020 hPa
Clouds: Mostly cloudy
Visibility: 10 miles , 16 km
Cloud details: Partly cloudy 16000 ft
Mostly cloudy 22000 ft
2020/01/28 21:56 KNID 282156Z 19003KT 10SM SCT160 BKN220 16/M01 A3012 RMK AO2 SLP201 T01611011 $
KDRA - Desert R/Mercury, Nevada, USA
Distance from station: SE 262mi, 421km
Updated: Tue, 28-Jan-2020 1:53pm PST
Clear
Clear
 Wind from WSW
Wind: WSW 6 mph , 9 km/h
Temperature: 61°F , 16°C
Dew Point: 25°F , -4°C
Humidity: 25%
Barometer: 30.11 inHg , 1019.6 hPa
Clouds: Clear
Visibility: 10 miles , 16 km
2020/01/28 21:53 KDRA 282153Z AUTO 24005KT 10SM CLR 16/M04 A3011 RMK AO2 SLP177 T01561044
 
KELY - Ely, Nevada, USA
Distance from station: E 262mi, 421km
Updated: Tue, 28-Jan-2020 1:53pm PST
Clear
Clear
 Wind from NE
Wind: NE 5 mph , 7 km/h
Temperature: 45°F , 7°C
Wind Chill: 42°F , 6°C
Dew Point: 25°F , -4°C
Humidity: 46%
Barometer: 30.12 inHg , 1020 hPa
Clouds: Clear
Visibility: 10 miles , 16 km
2020/01/28 21:53 KELY 282153Z AUTO 04004KT 10SM CLR 07/M04 A3012 RMK AO2 SLP193 T00721044 $
KREO - Rome, Oregon, USA
Distance from station: NNE 263mi, 424km
Updated: Tue, 28-Jan-2020 1:52pm PST

 Wind from WSW
Wind: WSW 21 mph , 33 km/h, Gust: 31 mph , 50 km/h
Temperature: 46°F , 8°C
Wind Chill: 38°F , 3°C
Dew Point: 28°F , -2°C
Humidity: 50%
Barometer: 30.04 inHg , 1017.3 hPa
2020/01/28 21:52 KREO 282152Z AUTO 25018G27KT 08/M02 A3004 RMK AO1 PK WND 25032/2133 SLP172 T00831017
 
KACV - Arcata/Eureka, California, USA
Distance from station: WNW 268mi, 431km
Updated: Tue, 28-Jan-2020 1:53pm PST
Overcast
Overcast
 Wind from SW
Wind: SW 6 mph , 9 km/h
Temperature: 55°F , 13°C
Dew Point: 48°F , 9°C
Humidity: 77%
Barometer: 30.29 inHg , 1025.7 hPa
Clouds: Overcast
Visibility: 8 miles , 13 km
Cloud details: Mostly cloudy 3600 ft
Overcast 4300 ft
2020/01/28 21:53 KACV 282153Z AUTO 23005KT 8SM BKN036 OVC043 13/09 A3029 RMK AO2 SLP263 T01280089
KSBP - San Luis Obispo, California, USA
Distance from station: S 268mi, 431km
Updated: Tue, 28-Jan-2020 1:56pm PST
Few Clouds
Few Clouds
 Wind from NNW
Wind: NNW 20 mph , 31 km/h, Gust: 25 mph , 41 km/h
Temperature: 63°F , 17°C
Dew Point: 46°F , 8°C
Humidity: 56%
Barometer: 30.23 inHg , 1023.7 hPa
Clouds: Few Clouds
Visibility: 10 miles , 16 km
Cloud details: Few Clouds 1500 ft
2020/01/28 21:56 KSBP 282156Z 33017G22KT 10SM FEW015 17/08 A3023 RMK AO2 SLP237 T01720078
 
KINS - Indian Springs, Nevada, USA
Distance from station: SE 279mi, 449km
Updated: Tue, 28-Jan-2020 1:58pm PST
Clear
Clear
 Wind from SSE
Wind: SSE 7 mph , 11 km/h
Temperature: 59°F , 15°C
Dew Point: 23°F , -5°C
Humidity: 25%
Barometer: 30.08 inHg , 1018.6 hPa
Clouds: Clear
Visibility: 10 miles , 16 km
2020/01/28 21:58 KINS 282158Z AUTO 15006KT 10SM CLR 15/M05 A3008 RMK AO2 PRESFR SLP175 T01471046 $
KTSP - Tehachapi, California, USA
Distance from station: SSE 279mi, 449km
Updated: Tue, 28-Jan-2020 2:35pm PST
Clear
Clear
 Wind from NW
Wind: NW 21 mph , 33 km/h, Gust: 28 mph , 44 km/h
Temperature: 45°F , 7°C
Wind Chill: 37°F , 3°C
Dew Point: 37°F , 3°C
Humidity: 76%
Barometer: 30.23 inHg , 1023.7 hPa
Clouds: Clear
Visibility: 8 miles , 13 km
2020/01/28 22:35 KTSP 282235Z AUTO 31018G24KT 8SM CLR 07/03 A3023 RMK AO2
 
KMFR - Medford, Oregon, USA
Distance from station: NW 284mi, 457km
Updated: Tue, 28-Jan-2020 1:53pm PST
Mostly cloudy
Mostly cloudy
 Wind from NNE
Wind: NNE 7 mph , 11 km/h
Temperature: 52°F , 11°C
Dew Point: 43°F , 6°C
Humidity: 72%
Barometer: 30.18 inHg , 1022 hPa
Clouds: Mostly cloudy
Visibility: 10 miles , 16 km
Cloud details: Mostly cloudy 4300 ft
2020/01/28 21:53 KMFR 282153Z 02006KT 10SM BKN043 11/06 A3018 RMK AO2 SLP222 T01110061
KMHV - Mojave, California, USA
Distance from station: SSE 288mi, 463km
Updated: Tue, 28-Jan-2020 2:20pm PST
Clear
Clear
 Wind from W
Wind: W 21 mph , 33 km/h, Gust: 33 mph , 54 km/h
Temperature: 59°F , 15°C
Dew Point: 25°F , -4°C
Humidity: 27%
Barometer: 30.11 inHg , 1019.6 hPa
Clouds: Clear
Visibility: 10 miles , 16 km
2020/01/28 22:20 KMHV 282220Z AUTO 27018G29KT 10SM CLR 15/M04 A3011 RMK A01
 
KSMX - Santa Maria, California, USA
Distance from station: S 289mi, 465km
Updated: Tue, 28-Jan-2020 1:51pm PST
Few Clouds
Few Clouds
 Wind from NNW
Wind: NNW 18 mph , 30 km/h
Temperature: 66°F , 19°C
Dew Point: 45°F , 7°C
Humidity: 46%
Barometer: 30.20 inHg , 1022.7 hPa
Clouds: Few Clouds
Visibility: 10 miles , 16 km
Cloud details: Few Clouds 25000 ft
2020/01/28 21:51 KSMX 282151Z 34016KT 10SM FEW250 19/07 A3020 RMK AO2 SLP229 T01940072
K9L2 - Edwards N-Aux, California, USA
Distance from station: SSE 299mi, 482km
Updated: Tue, 28-Jan-2020 1:58pm PST
Few Clouds
Few Clouds
 Wind from calm
Wind: Calm
Temperature: 63°F , 17°C
Dew Point: 32°F , 0°C
Humidity: 32%
Barometer: 30.11 inHg , 1019.6 hPa
Clouds: Few Clouds
Visibility: 7 miles , 11 km
Cloud details: Few Clouds 34000 ft
2020/01/28 21:58 K9L2 282158Z AUTO 00000KT 7SM FEW340 17/00 A3011 RMK AO2 SLP196 T01681000 $
Honor Flight NV - Honoring all of our Veterans CoCoRaHS (Community Collaborative Rain, Hail and Snow Network) Station Number: NV-DG-2 Live Lightning Map - USA Reno Skywarn Spotter ID: DO21 AlertID Southwestern Weather Network Carson Valley Community Food Closet - providing for the needs of our community